sensor_id;sensor_type;location;lat;lon;timestamp;pressure;altitude;pressure_sealevel;temperature;humidity
46836;BME280;32573;51.290;6.926;2023-04-10T00:00:51;100806.78;;;8.69;100.00
46836;BME280;32573;51.290;6.926;2023-04-10T00:03:45;100803.94;;;8.64;100.00
46836;BME280;32573;51.290;6.926;2023-04-10T00:06:14;100804.75;;;8.63;100.00
46836;BME280;32573;51.290;6.926;2023-04-10T00:08:42;100805.50;;;8.61;100.00
46836;BME280;32573;51.290;6.926;2023-04-10T00:11:11;100798.59;;;8.61;100.00
46836;BME280;32573;51.290;6.926;2023-04-10T00:13:39;100797.66;;;8.61;100.00
46836;BME280;32573;51.290;6.926;2023-04-10T00:16:08;100789.78;;;8.59;100.00
46836;BME280;32573;51.290;6.926;2023-04-10T00:18:37;100788.91;;;8.59;100.00
46836;BME280;32573;51.290;6.926;2023-04-10T00:21:07;100787.09;;;8.58;100.00
46836;BME280;32573;51.290;6.926;2023-04-10T00:23:35;100789.66;;;8.56;100.00
46836;BME280;32573;51.290;6.926;2023-04-10T00:26:04;100786.97;;;8.55;100.00
46836;BME280;32573;51.290;6.926;2023-04-10T00:28:33;100787.81;;;8.54;100.00
46836;BME280;32573;51.290;6.926;2023-04-10T00:31:04;100780.66;;;8.50;100.00
46836;BME280;32573;51.290;6.926;2023-04-10T00:33:33;100770.09;;;8.47;100.00
46836;BME280;32573;51.290;6.926;2023-04-10T00:36:01;100768.13;;;8.42;100.00
46836;BME280;32573;51.290;6.926;2023-04-10T00:38:31;100768.00;;;8.39;100.00
46836;BME280;32573;51.290;6.926;2023-04-10T00:41:00;100758.22;;;8.35;100.00
46836;BME280;32573;51.290;6.926;2023-04-10T00:43:29;100770.28;;;8.33;100.00
46836;BME280;32573;51.290;6.926;2023-04-10T00:45:58;100762.41;;;8.32;100.00
46836;BME280;32573;51.290;6.926;2023-04-10T00:48:27;100759.72;;;8.30;100.00
46836;BME280;32573;51.290;6.926;2023-04-10T00:50:56;100761.44;;;8.30;100.00
46836;BME280;32573;51.290;6.926;2023-04-10T00:53:25;100759.56;;;8.27;100.00
46836;BME280;32573;51.290;6.926;2023-04-10T00:55:56;100755.16;;;8.26;100.00
46836;BME280;32573;51.290;6.926;2023-04-10T00:58:25;100759.44;;;8.24;100.00
46836;BME280;32573;51.290;6.926;2023-04-10T01:00:54;100758.53;;;8.24;100.00
46836;BME280;32573;51.290;6.926;2023-04-10T01:03:23;100749.69;;;8.20;100.00
46836;BME280;32573;51.290;6.926;2023-04-10T01:06:00;100751.31;;;8.18;100.00
46836;BME280;32573;51.290;6.926;2023-04-10T01:08:38;100749.44;;;8.15;100.00
46836;BME280;32573;51.290;6.926;2023-04-10T01:11:19;100750.19;;;8.13;100.00
46836;BME280;32573;51.290;6.926;2023-04-10T01:13:54;100751.09;;;8.13;100.00
46836;BME280;32573;51.290;6.926;2023-04-10T01:16:29;100747.53;;;8.11;100.00
46836;BME280;32573;51.290;6.926;2023-04-10T01:19:06;100742.25;;;8.10;100.00
46836;BME280;32573;51.290;6.926;2023-04-10T01:21:40;100742.16;;;8.08;100.00
46836;BME280;32573;51.290;6.926;2023-04-10T01:24:29;100738.66;;;8.08;100.00
46836;BME280;32573;51.290;6.926;2023-04-10T01:27:13;100727.28;;;8.06;100.00
46836;BME280;32573;51.290;6.926;2023-04-10T01:29:55;100735.94;;;8.05;100.00
46836;BME280;32573;51.290;6.926;2023-04-10T01:32:27;100723.69;;;8.04;100.00
46836;BME280;32573;51.290;6.926;2023-04-10T01:34:59;100721.91;;;8.03;100.00
46836;BME280;32573;51.290;6.926;2023-04-10T01:37:33;100721.03;;;8.02;100.00
46836;BME280;32573;51.290;6.926;2023-04-10T01:40:08;100700.19;;;8.02;100.00
46836;BME280;32573;51.290;6.926;2023-04-10T01:42:40;100705.44;;;8.04;100.00
46836;BME280;32573;51.290;6.926;2023-04-10T01:45:16;100702.84;;;8.04;100.00
46836;BME280;32573;51.290;6.926;2023-04-10T01:47:48;100696.72;;;8.03;100.00
46836;BME280;32573;51.290;6.926;2023-04-10T01:50:19;100702.69;;;8.00;100.00
46836;BME280;32573;51.290;6.926;2023-04-10T01:52:50;100700.09;;;8.00;100.00
46836;BME280;32573;51.290;6.926;2023-04-10T01:55:24;100703.53;;;7.99;100.00
46836;BME280;32573;51.290;6.926;2023-04-10T01:58:04;100696.50;;;7.98;100.00
46836;BME280;32573;51.290;6.926;2023-04-10T02:00:38;100695.59;;;7.96;100.00
46836;BME280;32573;51.290;6.926;2023-04-10T02:03:08;100690.38;;;7.96;100.00
46836;BME280;32573;51.290;6.926;2023-04-10T02:05:51;100693.78;;;7.95;100.00
46836;BME280;32573;51.290;6.926;2023-04-10T02:08:25;100688.56;;;7.95;100.00
46836;BME280;32573;51.290;6.926;2023-04-10T02:11:01;100684.22;;;7.96;100.00
46836;BME280;32573;51.290;6.926;2023-04-10T02:13:33;100685.94;;;7.95;100.00
46836;BME280;32573;51.290;6.926;2023-04-10T02:16:05;100685.16;;;7.96;100.00
46836;BME280;32573;51.290;6.926;2023-04-10T02:18:35;100691.25;;;7.97;100.00
46836;BME280;32573;51.290;6.926;2023-04-10T02:21:06;100676.50;;;7.97;100.00
46836;BME280;32573;51.290;6.926;2023-04-10T02:23:36;100674.72;;;7.96;100.00
46836;BME280;32573;51.290;6.926;2023-04-10T02:26:06;100673.88;;;7.97;100.00
46836;BME280;32573;51.290;6.926;2023-04-10T02:28:36;100681.72;;;7.97;100.00
46836;BME280;32573;51.290;6.926;2023-04-10T02:31:07;100672.91;;;7.95;100.00
46836;BME280;32573;51.290;6.926;2023-04-10T02:33:35;100678.13;;;7.95;100.00
46836;BME280;32573;51.290;6.926;2023-04-10T02:36:05;100676.38;;;7.94;100.00
46836;BME280;32573;51.290;6.926;2023-04-10T02:38:33;100684.19;;;7.94;100.00
46836;BME280;32573;51.290;6.926;2023-04-10T02:41:02;100682.47;;;7.95;100.00
46836;BME280;32573;51.290;6.926;2023-04-10T02:43:31;100679.78;;;7.93;100.00
46836;BME280;32573;51.290;6.926;2023-04-10T02:45:59;100670.25;;;7.94;100.00
46836;BME280;32573;51.290;6.926;2023-04-10T02:48:34;100674.56;;;7.93;100.00
46836;BME280;32573;51.290;6.926;2023-04-10T02:51:03;100676.38;;;7.94;100.00
46836;BME280;32573;51.290;6.926;2023-04-10T02:53:33;100676.38;;;7.94;100.00
46836;BME280;32573;51.290;6.926;2023-04-10T02:56:02;100674.63;;;7.95;100.00
46836;BME280;32573;51.290;6.926;2023-04-10T02:58:32;100675.53;;;7.95;100.00
46836;BME280;32573;51.290;6.926;2023-04-10T03:01:04;100667.72;;;7.95;100.00
46836;BME280;32573;51.290;6.926;2023-04-10T03:03:42;100670.31;;;7.95;100.00
46836;BME280;32573;51.290;6.926;2023-04-10T03:06:13;100664.13;;;7.93;100.00
46836;BME280;32573;51.290;6.926;2023-04-10T03:08:44;100675.41;;;7.92;100.00
46836;BME280;32573;51.290;6.926;2023-04-10T03:11:13;100663.25;;;7.93;100.00
46836;BME280;32573;51.290;6.926;2023-04-10T03:13:41;100664.97;;;7.92;100.00
46836;BME280;32573;51.290;6.926;2023-04-10T03:16:10;100661.47;;;7.92;100.00
46836;BME280;32573;51.290;6.926;2023-04-10T03:18:39;100658.03;;;7.93;100.00
46836;BME280;32573;51.290;6.926;2023-04-10T03:21:09;100645.84;;;7.92;100.00
46836;BME280;32573;51.290;6.926;2023-04-10T03:23:37;100641.50;;;7.92;100.00
46836;BME280;32573;51.290;6.926;2023-04-10T03:26:06;100635.47;;;7.93;100.00
46836;BME280;32573;51.290;6.926;2023-04-10T03:28:38;100625.13;;;7.95;100.00
46836;BME280;32573;51.290;6.926;2023-04-10T03:31:09;100629.44;;;7.94;100.00
46836;BME280;32573;51.290;6.926;2023-04-10T03:33:40;100631.22;;;7.95;100.00
46836;BME280;32573;51.290;6.926;2023-04-10T03:36:10;100617.38;;;7.96;100.00
46836;BME280;32573;51.290;6.926;2023-04-10T03:38:39;100619.16;;;7.97;100.00
46836;BME280;32573;51.290;6.926;2023-04-10T03:41:08;100623.53;;;7.98;100.00
46836;BME280;32573;51.290;6.926;2023-04-10T03:43:38;100612.31;;;7.99;100.00
46836;BME280;32573;51.290;6.926;2023-04-10T03:46:07;100614.06;;;8.00;100.00
46836;BME280;32573;51.290;6.926;2023-04-10T03:48:40;100608.88;;;8.00;100.00
46836;BME280;32573;51.290;6.926;2023-04-10T03:51:11;100621.09;;;8.02;100.00
46836;BME280;32573;51.290;6.926;2023-04-10T03:53:40;100623.69;;;8.02;100.00
46836;BME280;32573;51.290;6.926;2023-04-10T03:56:13;100611.56;;;8.02;100.00
46836;BME280;32573;51.290;6.926;2023-04-10T03:58:41;100608.88;;;8.00;100.00
46836;BME280;32573;51.290;6.926;2023-04-10T04:01:11;100613.28;;;8.02;100.00
46836;BME280;32573;51.290;6.926;2023-04-10T04:04:00;100608.88;;;8.00;100.00
46836;BME280;32573;51.290;6.926;2023-04-10T04:07:03;100613.19;;;8.00;100.00
46836;BME280;32573;51.290;6.926;2023-04-10T04:09:57;100607.09;;;7.99;100.00
46836;BME280;32573;51.290;6.926;2023-04-10T04:12:58;100604.47;;;7.99;100.00
46836;BME280;32573;51.290;6.926;2023-04-10T04:15:53;100608.88;;;8.00;100.00
46836;BME280;32573;51.290;6.926;2023-04-10T04:18:43;100614.06;;;8.00;100.00
46836;BME280;32573;51.290;6.926;2023-04-10T04:21:35;100607.91;;;7.98;100.00
46836;BME280;32573;51.290;6.926;2023-04-10T04:24:33;100606.22;;;7.99;100.00
46836;BME280;32573;51.290;6.926;2023-04-10T04:27:27;100600.06;;;7.98;100.00
46836;BME280;32573;51.290;6.926;2023-04-10T04:30:07;100603.50;;;7.97;100.00
46836;BME280;32573;51.290;6.926;2023-04-10T04:32:44;100587.88;;;7.97;100.00
46836;BME280;32573;51.290;6.926;2023-04-10T04:35:42;100588.72;;;7.96;100.00
46836;BME280;32573;51.290;6.926;2023-04-10T04:38:18;100591.31;;;7.96;100.00
46836;BME280;32573;51.290;6.926;2023-04-10T04:41:00;100593.00;;;7.96;100.00
46836;BME280;32573;51.290;6.926;2023-04-10T04:43:42;100590.41;;;7.96;100.00
46836;BME280;32573;51.290;6.926;2023-04-10T04:46:38;100590.41;;;7.96;100.00
46836;BME280;32573;51.290;6.926;2023-04-10T04:49:28;100587.88;;;7.97;100.00
46836;BME280;32573;51.290;6.926;2023-04-10T04:52:15;100586.16;;;7.98;100.00
46836;BME280;32573;51.290;6.926;2023-04-10T04:54:55;100579.22;;;7.98;100.00
46836;BME280;32573;51.290;6.926;2023-04-10T04:57:37;100576.69;;;8.00;100.00
46836;BME280;32573;51.290;6.926;2023-04-10T05:00:26;100582.03;;;8.03;100.00
46836;BME280;32573;51.290;6.926;2023-04-10T05:03:03;100586.50;;;8.06;100.00
46836;BME280;32573;51.290;6.926;2023-04-10T05:06:02;100585.81;;;8.10;100.00
46836;BME280;32573;51.290;6.926;2023-04-10T05:08:56;100581.56;;;8.12;100.00
46836;BME280;32573;51.290;6.926;2023-04-10T05:11:43;100584.38;;;8.16;100.00
46836;BME280;32573;51.290;6.926;2023-04-10T05:14:35;100581.91;;;8.19;100.00
46836;BME280;32573;51.290;6.926;2023-04-10T05:17:27;100586.41;;;8.24;100.00
46836;BME280;32573;51.290;6.926;2023-04-10T05:20:16;100589.22;;;8.28;100.00
46836;BME280;32573;51.290;6.926;2023-04-10T05:22:57;100591.16;;;8.32;100.00
46836;BME280;32573;51.290;6.926;2023-04-10T05:25:35;100590.47;;;8.36;100.00
46836;BME280;32573;51.290;6.926;2023-04-10T05:28:16;100589.72;;;8.39;100.00
46836;BME280;32573;51.290;6.926;2023-04-10T05:31:01;100591.59;;;8.41;100.00
46836;BME280;32573;51.290;6.926;2023-04-10T05:33:49;100591.72;;;8.45;100.00
46836;BME280;32573;51.290;6.926;2023-04-10T05:36:24;100588.44;;;8.49;100.00
46836;BME280;32573;51.290;6.926;2023-04-10T05:39:16;100588.59;;;8.53;100.00
46836;BME280;32573;51.290;6.926;2023-04-10T05:41:51;100587.03;;;8.57;100.00
46836;BME280;32573;51.290;6.926;2023-04-10T05:44:30;100595.97;;;8.62;100.00
46836;BME280;32573;51.290;6.926;2023-04-10T05:47:10;100596.06;;;8.65;100.00
46836;BME280;32573;51.290;6.926;2023-04-10T05:49:38;100591.81;;;8.67;100.00
46836;BME280;32573;51.290;6.926;2023-04-10T05:52:26;100604.19;;;8.71;100.00
46836;BME280;32573;51.290;6.926;2023-04-10T05:55:10;100587.81;;;8.75;100.00
46836;BME280;32573;51.290;6.926;2023-04-10T05:57:41;100588.84;;;8.79;100.00
46836;BME280;32573;51.290;6.926;2023-04-10T06:00:18;100584.63;;;8.82;100.00
46836;BME280;32573;51.290;6.926;2023-04-10T06:03:20;100594.38;;;8.87;100.00
46836;BME280;32573;51.290;6.926;2023-04-10T06:05:55;100583.22;;;8.91;100.00
46836;BME280;32573;51.290;6.926;2023-04-10T06:08:24;100590.38;;;8.95;100.00
46836;BME280;32573;51.290;6.926;2023-04-10T06:10:53;100591.38;;;8.98;100.00
46836;BME280;32573;51.290;6.926;2023-04-10T06:13:21;100590.69;;;9.02;100.00
46836;BME280;32573;51.290;6.926;2023-04-10T06:15:54;100580.44;;;9.07;100.00
46836;BME280;32573;51.290;6.926;2023-04-10T06:18:28;100575.31;;;9.10;100.00
46836;BME280;32573;51.290;6.926;2023-04-10T06:20:56;100577.22;;;9.14;100.00
46836;BME280;32573;51.290;6.926;2023-04-10T06:23:28;100577.44;;;9.19;100.00
46836;BME280;32573;51.290;6.926;2023-04-10T06:25:56;100567.13;;;9.23;100.00
46836;BME280;32573;51.290;6.926;2023-04-10T06:28:25;100568.16;;;9.27;100.00
46836;BME280;32573;51.290;6.926;2023-04-10T06:30:58;100563.06;;;9.30;100.00
46836;BME280;32573;51.290;6.926;2023-04-10T06:33:34;100559.75;;;9.34;100.00
46836;BME280;32573;51.290;6.926;2023-04-10T06:36:06;100570.38;;;9.39;100.00
46836;BME280;32573;51.290;6.926;2023-04-10T06:38:40;100567.03;;;9.43;100.00
46836;BME280;32573;51.290;6.926;2023-04-10T06:41:09;100570.72;;;9.48;100.00
46836;BME280;32573;51.290;6.926;2023-04-10T06:43:38;100572.69;;;9.54;100.00
46836;BME280;32573;51.290;6.926;2023-04-10T06:46:07;100576.38;;;9.59;100.00
46836;BME280;32573;51.290;6.926;2023-04-10T06:48:37;100576.59;;;9.65;100.00
46836;BME280;32573;51.290;6.926;2023-04-10T06:51:06;100569.00;;;9.71;100.00
46836;BME280;32573;51.290;6.926;2023-04-10T06:53:35;100567.47;;;9.76;100.00
46836;BME280;32573;51.290;6.926;2023-04-10T06:56:04;100572.97;;;9.84;100.00
46836;BME280;32573;51.290;6.926;2023-04-10T06:58:33;100562.72;;;9.90;100.00
46836;BME280;32573;51.290;6.926;2023-04-10T07:01:01;100564.72;;;9.97;100.00
46836;BME280;32573;51.290;6.926;2023-04-10T07:03:31;100554.47;;;10.03;100.00
46836;BME280;32573;51.290;6.926;2023-04-10T07:06:01;100546.88;;;10.09;100.00
46836;BME280;32573;51.290;6.926;2023-04-10T07:08:30;100543.59;;;10.15;100.00
46836;BME280;32573;51.290;6.926;2023-04-10T07:10:59;100541.13;;;10.20;100.00
46836;BME280;32573;51.290;6.926;2023-04-10T07:13:27;100543.94;;;10.26;100.00
46836;BME280;32573;51.290;6.926;2023-04-10T07:15:56;100542.44;;;10.31;100.00
46836;BME280;32573;51.290;6.926;2023-04-10T07:18:25;100545.25;;;10.37;100.00
46836;BME280;32573;51.290;6.926;2023-04-10T07:20:56;100541.16;;;10.44;100.00
46836;BME280;32573;51.290;6.926;2023-04-10T07:23:28;100538.69;;;10.48;100.00
46836;BME280;32573;51.290;6.926;2023-04-10T07:25:56;100519.72;;;10.55;100.00
46836;BME280;32573;51.290;6.926;2023-04-10T07:28:28;100524.28;;;10.61;100.00
46836;BME280;32573;51.290;6.926;2023-04-10T07:31:03;100525.38;;;10.68;100.00
46836;BME280;32573;51.290;6.926;2023-04-10T07:33:32;100523.78;;;10.73;100.00
46836;BME280;32573;51.290;6.926;2023-04-10T07:36:02;100522.19;;;10.78;100.00
46836;BME280;32573;51.290;6.926;2023-04-10T07:38:33;100513.69;;;10.84;100.00
46836;BME280;32573;51.290;6.926;2023-04-10T07:41:03;100519.03;;;10.88;100.00
46836;BME280;32573;51.290;6.926;2023-04-10T07:43:31;100514.81;;;10.92;100.00
46836;BME280;32573;51.290;6.926;2023-04-10T07:46:00;100508.78;;;10.94;100.00
46836;BME280;32573;51.290;6.926;2023-04-10T07:48:29;100505.44;;;10.98;100.00
46836;BME280;32573;51.290;6.926;2023-04-10T07:50:58;100508.97;;;11.00;100.00
46836;BME280;32573;51.290;6.926;2023-04-10T07:53:26;100506.47;;;11.04;100.00
46836;BME280;32573;51.290;6.926;2023-04-10T07:55:57;100496.91;;;11.06;100.00
46836;BME280;32573;51.290;6.926;2023-04-10T07:58:26;100493.53;;;11.10;100.00
46836;BME280;32573;51.290;6.926;2023-04-10T08:00:59;100494.53;;;11.13;100.00
46836;BME280;32573;51.290;6.926;2023-04-10T08:03:28;100479.88;;;11.20;100.00
46836;BME280;32573;51.290;6.926;2023-04-10T08:05:57;100488.75;;;11.25;100.00
46836;BME280;32573;51.290;6.926;2023-04-10T08:08:26;100493.31;;;11.31;100.00
46836;BME280;32573;51.290;6.926;2023-04-10T08:10:54;100479.53;;;11.38;100.00
46836;BME280;32573;51.290;6.926;2023-04-10T08:13:27;100468.38;;;11.45;100.00
46836;BME280;32573;51.290;6.926;2023-04-10T08:15:56;100481.69;;;11.51;100.00
46836;BME280;32573;51.290;6.926;2023-04-10T08:18:25;100475.72;;;11.57;100.00
46836;BME280;32573;51.290;6.926;2023-04-10T08:20:53;100468.09;;;11.64;100.00
46836;BME280;32573;51.290;6.926;2023-04-10T08:23:22;100469.16;;;11.71;100.00
46836;BME280;32573;51.290;6.926;2023-04-10T08:25:50;100456.19;;;11.77;100.00
46836;BME280;32573;51.290;6.926;2023-04-10T08:28:19;100459.00;;;11.83;100.00
46836;BME280;32573;51.290;6.926;2023-04-10T08:30:52;100455.75;;;11.91;100.00
46836;BME280;32573;51.290;6.926;2023-04-10T08:33:23;100448.91;;;11.97;100.00
46836;BME280;32573;51.290;6.926;2023-04-10T08:35:53;100447.34;;;12.04;100.00
46836;BME280;32573;51.290;6.926;2023-04-10T08:38:22;100458.00;;;12.10;100.00
46836;BME280;32573;51.290;6.926;2023-04-10T08:40:51;100459.06;;;12.17;100.00
46836;BME280;32573;51.290;6.926;2023-04-10T08:43:22;100443.44;;;12.23;100.00
46836;BME280;32573;51.290;6.926;2023-04-10T08:45:52;100449.75;;;12.29;100.00
46836;BME280;32573;51.290;6.926;2023-04-10T08:48:25;100436.88;;;12.39;100.00
46836;BME280;32573;51.290;6.926;2023-04-10T08:51:00;100422.13;;;12.44;100.00
46836;BME280;32573;51.290;6.926;2023-04-10T08:53:38;100438.06;;;12.51;100.00
46836;BME280;32573;51.290;6.926;2023-04-10T08:56:11;100425.94;;;12.57;100.00
46836;BME280;32573;51.290;6.926;2023-04-10T08:58:41;100437.41;;;12.62;100.00
46836;BME280;32573;51.290;6.926;2023-04-10T09:01:12;100419.16;;;12.66;100.00
46836;BME280;32573;51.290;6.926;2023-04-10T09:03:42;100414.84;;;12.70;100.00
46836;BME280;32573;51.290;6.926;2023-04-10T09:06:10;100414.03;;;12.72;100.00
46836;BME280;32573;51.290;6.926;2023-04-10T09:08:39;100412.38;;;12.76;100.00
46836;BME280;32573;51.290;6.926;2023-04-10T09:11:07;100407.25;;;12.81;100.00
46836;BME280;32573;51.290;6.926;2023-04-10T09:13:38;100402.03;;;12.84;100.00
46836;BME280;32573;51.290;6.926;2023-04-10T09:16:08;100401.25;;;12.88;100.00
46836;BME280;32573;51.290;6.926;2023-04-10T09:18:44;100408.34;;;12.92;100.00
46836;BME280;32573;51.290;6.926;2023-04-10T09:21:15;100404.97;;;12.98;100.00
46836;BME280;32573;51.290;6.926;2023-04-10T09:23:45;100408.63;;;13.04;100.00
46836;BME280;32573;51.290;6.926;2023-04-10T09:26:28;100406.13;;;13.10;100.00
46836;BME280;32573;51.290;6.926;2023-04-10T09:28:59;100415.06;;;13.19;100.00
46836;BME280;32573;51.290;6.926;2023-04-10T09:31:32;100409.09;;;13.26;100.00
46836;BME280;32573;51.290;6.926;2023-04-10T09:34:12;100417.19;;;13.35;100.00
46836;BME280;32573;51.290;6.926;2023-04-10T09:36:42;100418.25;;;13.43;100.00
46836;BME280;32573;51.290;6.926;2023-04-10T09:39:11;100408.75;;;13.51;100.00
46836;BME280;32573;51.290;6.926;2023-04-10T09:41:47;100408.88;;;13.57;100.00
46836;BME280;32573;51.290;6.926;2023-04-10T09:44:17;100393.28;;;13.67;100.00
46836;BME280;32573;51.290;6.926;2023-04-10T09:46:46;100390.78;;;13.74;100.00
46836;BME280;32573;51.290;6.926;2023-04-10T09:49:17;100386.59;;;13.84;100.00
46836;BME280;32573;51.290;6.926;2023-04-10T09:51:46;100383.22;;;13.91;100.00
46836;BME280;32573;51.290;6.926;2023-04-10T09:54:15;100380.72;;;13.99;100.00
46836;BME280;32573;51.290;6.926;2023-04-10T09:56:50;100381.72;;;14.06;100.00
46836;BME280;32573;51.290;6.926;2023-04-10T09:59:22;100380.09;;;14.14;100.00
46836;BME280;32573;51.290;6.926;2023-04-10T10:01:51;100371.44;;;14.21;100.00
46836;BME280;32573;51.290;6.926;2023-04-10T10:04:22;100368.09;;;14.31;100.00
46836;BME280;32573;51.290;6.926;2023-04-10T10:06:51;100369.06;;;14.38;100.00
46836;BME280;32573;51.290;6.926;2023-04-10T10:09:20;100364.78;;;14.44;100.00
46836;BME280;32573;51.290;6.926;2023-04-10T10:11:49;100365.75;;;14.51;100.00
46836;BME280;32573;51.290;6.926;2023-04-10T10:14:20;100355.25;;;14.53;100.00
46836;BME280;32573;51.290;6.926;2023-04-10T10:16:49;100355.31;;;14.56;100.00
46836;BME280;32573;51.290;6.926;2023-04-10T10:19:26;100341.31;;;14.60;100.00
46836;BME280;32573;51.290;6.926;2023-04-10T10:21:59;100348.38;;;14.62;100.00
46836;BME280;32573;51.290;6.926;2023-04-10T10:24:30;100342.34;;;14.68;100.00
46836;BME280;32573;51.290;6.926;2023-04-10T10:27:01;100342.44;;;14.77;100.00
46836;BME280;32573;51.290;6.926;2023-04-10T10:29:31;100335.50;;;14.84;100.00
46836;BME280;32573;51.290;6.926;2023-04-10T10:32:01;100332.06;;;14.89;100.00
46836;BME280;32573;51.290;6.926;2023-04-10T10:34:32;100318.94;;;14.93;100.00
46836;BME280;32573;51.290;6.926;2023-04-10T10:37:03;100320.78;;;15.00;100.00
46836;BME280;32573;51.290;6.926;2023-04-10T10:39:41;100303.28;;;15.06;100.00
46836;BME280;32573;51.290;6.926;2023-04-10T10:42:14;100297.25;;;15.15;100.00
46836;BME280;32573;51.290;6.926;2023-04-10T10:44:50;100300.78;;;15.19;100.00
46836;BME280;32573;51.290;6.926;2023-04-10T10:47:23;100295.63;;;15.29;100.00
46836;BME280;32573;51.290;6.926;2023-04-10T10:49:57;100272.81;;;15.35;100.00
46836;BME280;32573;51.290;6.926;2023-04-10T10:52:43;100272.03;;;15.40;100.00
46836;BME280;32573;51.290;6.926;2023-04-10T10:55:29;100266.78;;;15.46;100.00
46836;BME280;32573;51.290;6.926;2023-04-10T10:58:05;100257.19;;;15.53;100.00
46836;BME280;32573;51.290;6.926;2023-04-10T11:01:05;100255.47;;;15.58;100.00
46836;BME280;32573;51.290;6.926;2023-04-10T11:03:37;100242.31;;;15.63;100.00
46836;BME280;32573;51.290;6.926;2023-04-10T11:06:08;100241.47;;;15.68;100.00
46836;BME280;32573;51.290;6.926;2023-04-10T11:08:42;100228.34;;;15.74;100.00
46836;BME280;32573;51.290;6.926;2023-04-10T11:11:16;100232.81;;;15.82;100.00
46836;BME280;32573;51.290;6.926;2023-04-10T11:14:12;100222.31;;;15.88;100.00
46836;BME280;32573;51.290;6.926;2023-04-10T11:16:47;100217.94;;;15.91;100.00
46836;BME280;32573;51.290;6.926;2023-04-10T11:19:16;100212.69;;;15.96;100.00
46836;BME280;32573;51.290;6.926;2023-04-10T11:22:05;100210.97;;;16.03;100.00
46836;BME280;32573;51.290;6.926;2023-04-10T11:24:57;100203.94;;;16.03;100.00
46836;BME280;32573;51.290;6.926;2023-04-10T11:27:43;100209.25;;;16.09;100.00
46836;BME280;32573;51.290;6.926;2023-04-10T11:30:34;100210.13;;;16.11;100.00
46836;BME280;32573;51.290;6.926;2023-04-10T11:33:04;100211.94;;;16.18;100.00
46836;BME280;32573;51.290;6.926;2023-04-10T11:35:33;100193.47;;;16.25;100.00
46836;BME280;32573;51.290;6.926;2023-04-10T11:38:21;100191.72;;;16.27;100.00
46836;BME280;32573;51.290;6.926;2023-04-10T11:40:57;100183.84;;;16.33;100.00
46836;BME280;32573;51.290;6.926;2023-04-10T11:43:25;100184.78;;;16.43;100.00
46836;BME280;32573;51.290;6.926;2023-04-10T11:46:02;100170.69;;;16.45;100.00
46836;BME280;32573;51.290;6.926;2023-04-10T11:48:31;100171.56;;;16.47;100.00
46836;BME280;32573;51.290;6.926;2023-04-10T11:51:08;100166.31;;;16.52;100.00
46836;BME280;32573;51.290;6.926;2023-04-10T11:53:38;100161.94;;;16.55;100.00
46836;BME280;32573;51.290;6.926;2023-04-10T11:56:18;100154.91;;;16.60;100.00
46836;BME280;32573;51.290;6.926;2023-04-10T11:58:50;100154.00;;;16.65;100.00
46836;BME280;32573;51.290;6.926;2023-04-10T12:01:21;100149.63;;;16.67;100.00
46836;BME280;32573;51.290;6.926;2023-04-10T12:03:50;100151.41;;;16.68;100.00
46836;BME280;32573;51.290;6.926;2023-04-10T12:06:19;100144.34;;;16.71;100.00
46836;BME280;32573;51.290;6.926;2023-04-10T12:08:49;100136.44;;;16.73;100.00
46836;BME280;32573;51.290;6.926;2023-04-10T12:11:20;100135.53;;;16.77;100.00
46836;BME280;32573;51.290;6.926;2023-04-10T12:13:51;100128.53;;;16.80;100.00
46836;BME280;32573;51.290;6.926;2023-04-10T12:16:20;100123.28;;;16.85;100.00
46836;BME280;32573;51.290;6.926;2023-04-10T12:18:49;100115.31;;;16.94;100.00
46836;BME280;32573;51.290;6.926;2023-04-10T12:21:19;100117.13;;;17.03;100.00
46836;BME280;32573;51.290;6.926;2023-04-10T12:23:49;100120.63;;;17.10;100.00
46836;BME280;32573;51.290;6.926;2023-04-10T12:26:19;100118.00;;;17.14;100.00
46836;BME280;32573;51.290;6.926;2023-04-10T12:28:50;100110.94;;;17.16;100.00
46836;BME280;32573;51.290;6.926;2023-04-10T12:31:26;100121.53;;;17.13;100.00
46836;BME280;32573;51.290;6.926;2023-04-10T12:33:55;100096.84;;;17.08;100.00
46836;BME280;32573;51.290;6.926;2023-04-10T12:36:27;100100.34;;;17.07;100.00
46836;BME280;32573;51.290;6.926;2023-04-10T12:38:58;100109.19;;;17.06;100.00
46836;BME280;32573;51.290;6.926;2023-04-10T12:41:29;100109.19;;;17.03;100.00
46836;BME280;32573;51.290;6.926;2023-04-10T12:44:12;100101.22;;;17.04;100.00
46836;BME280;32573;51.290;6.926;2023-04-10T12:46:41;100088.88;;;17.10;100.00
46836;BME280;32573;51.290;6.926;2023-04-10T12:49:12;100084.50;;;17.16;100.00
46836;BME280;32573;51.290;6.926;2023-04-10T12:51:43;100080.09;;;17.20;100.00
46836;BME280;32573;51.290;6.926;2023-04-10T12:54:27;100079.22;;;17.22;100.00
46836;BME280;32573;51.290;6.926;2023-04-10T12:56:56;100071.25;;;17.24;100.00
46836;BME280;32573;51.290;6.926;2023-04-10T12:59:25;100073.91;;;17.24;100.00
46836;BME280;32573;51.290;6.926;2023-04-10T13:01:54;100060.66;;;17.24;100.00
46836;BME280;32573;51.290;6.926;2023-04-10T13:04:23;100058.94;;;17.23;100.00
46836;BME280;32573;51.290;6.926;2023-04-10T13:06:52;100058.91;;;17.26;100.00
46836;BME280;32573;51.290;6.926;2023-04-10T13:09:20;100045.69;;;17.26;100.00
46836;BME280;32573;51.290;6.926;2023-04-10T13:11:50;100043.91;;;17.27;100.00
46836;BME280;32573;51.290;6.926;2023-04-10T13:14:19;100041.28;;;17.28;100.00
46836;BME280;32573;51.290;6.926;2023-04-10T13:16:48;100031.56;;;17.30;100.00
46836;BME280;32573;51.290;6.926;2023-04-10T13:19:17;100040.38;;;17.37;100.00